Edna T. Gattle — WDD2528 — position and weather

sailwx.info

Track history (hours):
 
Tides and Currents Weather Stations Pressure Air Temp Water Temp Dewpoint Dewpoint Depression Visibility Wind Speed Wind Dir Waves Ship Positions

Edna T. Gattle

Owner: Terral RiverService, Inc., Lake Providence, LA. More information available from US FCC via Universal Licensing System and Coast Guard Vessel Documentation Center.

Last reported at 2016-Oct-26 09:33 UTC. Time now 2016-Dec-06 10:12 UTC.
Position N 29°48' W 092°14'.
Warning: this ship's position is 41 days out of date.

Length 33 m; draft 2.8 m.

Type: Towing. MMSI: 367116420.

Date/timePositionNaut miles runAvg speedWind from/ knotsBaromVisibWave heightAir tempDewpointWater temp
2016-Oct-26 09:33N 29°48' W 092°14'4 3.9
2016-Oct-26 08:33N 29°50' W 092°18'6 6.0
2016-Oct-26 07:33N 29°53' W 092°24'20 6.8
2016-Oct-26 04:33N 29°58' W 092°47'26 5.1
2016-Oct-25 23:33N 30°03' W 093°16'9 4.4
2016-Oct-25 21:33N 30°11' W 093°19'4 4.4
2016-Oct-25 20:33N 30°14' W 093°15'0 0.0
2016-Oct-25 17:33N 30°14' W 093°15'0 0.0
2016-Oct-25 16:33N 30°14' W 093°15'0 0.0
2016-Oct-25 15:33N 30°14' W 093°15'0 0.0
2016-Oct-25 13:33N 30°14' W 093°15'0 0.0
2016-Oct-25 12:33N 30°14' W 093°15'0 0.0
2016-Oct-25 10:33N 30°14' W 093°15'0 0.0
2016-Oct-25 07:33N 30°14' W 093°15'0 0.0
2016-Oct-25 05:33N 30°14' W 093°15'0 0.0
2016-Oct-25 04:33N 30°14' W 093°15'0 0.0
2016-Oct-25 03:33N 30°14' W 093°15'0 0.0
2016-Oct-25 02:33N 30°14' W 093°15'0 0.0
2016-Oct-24 21:33N 30°14' W 093°15'0 0.0
2016-Oct-24 20:33N 30°14' W 093°15'0 0.0
2016-Oct-24 18:33N 30°14' W 093°15'0 0.0
2016-Oct-24 13:33N 30°14' W 093°15'6 1.0
2016-Oct-24 07:33N 30°10' W 093°19'4 3.9
2016-Oct-24 06:33N 30°06' W 093°19'3 3.0
2016-Oct-24 05:33N 30°04' W 093°16'0 0.0
2016-Oct-24 04:33N 30°04' W 093°16'0 0.0
2016-Oct-24 01:33N 30°04' W 093°16'4 1.2
2016-Oct-23 22:33N 30°01' W 093°14'34 4.3
2016-Oct-23 14:33N 29°55' W 092°35'5 4.6
2016-Oct-23 13:33N 29°54' W 092°29'12 4.0
2016-Oct-23 10:33N 29°49' W 092°17'2 2.1
2016-Oct-23 09:33N 29°48' W 092°15'3 1.6
2016-Oct-23 07:33N 29°47' W 092°11'1 0.3
2016-Oct-23 05:33N 29°47' W 092°11'7 3.3
2016-Oct-23 03:33N 29°49' W 092°03'4 4.5
2016-Oct-23 02:33N 29°50' W 091°59'13 4.3
2016-Oct-22 23:33N 29°46' W 091°44'  
Track history (hours):
 
Tides and Currents Weather Stations Pressure Air Temp Water Temp Dewpoint Dewpoint Depression Visibility Wind Speed Wind Dir Waves Ship Positions

Edna T. Gattle

Owner: Terral RiverService, Inc., Lake Providence, LA. More information available from US FCC via Universal Licensing System and Coast Guard Vessel Documentation Center.

Last reported at 2016-Oct-26 09:33 UTC. Time now 2016-Dec-06 10:12 UTC.
Position N 29°48' W 092°14'.
Warning: this ship's position is 41 days out of date.

Length 33 m; draft 2.8 m.

Type: Towing. MMSI: 367116420.

Date/timePositionNaut miles runAvg speedWind from/ knotsBaromVisibWave heightAir tempDewpointWater temp
2016-Oct-26 09:33N 29°48' W 092°14'4 3.9
2016-Oct-26 08:33N 29°50' W 092°18'6 6.0
2016-Oct-26 07:33N 29°53' W 092°24'20 6.8
2016-Oct-26 04:33N 29°58' W 092°47'26 5.1
2016-Oct-25 23:33N 30°03' W 093°16'9 4.4
2016-Oct-25 21:33N 30°11' W 093°19'4 4.4
2016-Oct-25 20:33N 30°14' W 093°15'0 0.0
2016-Oct-25 17:33N 30°14' W 093°15'0 0.0
2016-Oct-25 16:33N 30°14' W 093°15'0 0.0
2016-Oct-25 15:33N 30°14' W 093°15'0 0.0
2016-Oct-25 13:33N 30°14' W 093°15'0 0.0
2016-Oct-25 12:33N 30°14' W 093°15'0 0.0
2016-Oct-25 10:33N 30°14' W 093°15'0 0.0
2016-Oct-25 07:33N 30°14' W 093°15'0 0.0
2016-Oct-25 05:33N 30°14' W 093°15'0 0.0
2016-Oct-25 04:33N 30°14' W 093°15'0 0.0
2016-Oct-25 03:33N 30°14' W 093°15'0 0.0
2016-Oct-25 02:33N 30°14' W 093°15'0 0.0
2016-Oct-24 21:33N 30°14' W 093°15'0 0.0
2016-Oct-24 20:33N 30°14' W 093°15'0 0.0
2016-Oct-24 18:33N 30°14' W 093°15'0 0.0
2016-Oct-24 13:33N 30°14' W 093°15'6 1.0
2016-Oct-24 07:33N 30°10' W 093°19'4 3.9
2016-Oct-24 06:33N 30°06' W 093°19'3 3.0
2016-Oct-24 05:33N 30°04' W 093°16'0 0.0
2016-Oct-24 04:33N 30°04' W 093°16'0 0.0
2016-Oct-24 01:33N 30°04' W 093°16'4 1.2
2016-Oct-23 22:33N 30°01' W 093°14'34 4.3
2016-Oct-23 14:33N 29°55' W 092°35'5 4.6
2016-Oct-23 13:33N 29°54' W 092°29'12 4.0
2016-Oct-23 10:33N 29°49' W 092°17'2 2.1
2016-Oct-23 09:33N 29°48' W 092°15'3 1.6
2016-Oct-23 07:33N 29°47' W 092°11'1 0.3
2016-Oct-23 05:33N 29°47' W 092°11'7 3.3
2016-Oct-23 03:33N 29°49' W 092°03'4 4.5
2016-Oct-23 02:33N 29°50' W 091°59'13 4.3
2016-Oct-22 23:33N 29°46' W 091°44'  

Dump ship's entire track history